Time;durP1;ratioP1;P1;durP2;ratioP2;P2;SDS_P1;SDS_P2;PMS_P1;PMS_P2;Temp;Humidity;BMP_temperature;BMP_pressure;BME280_temperature;BME280_humidity;BME280_pressure;Samples;Min_cycle;Max_cycle;Signal;HPM_P1;HPM_P2
2021/09/15 00:01:56;;;;;;;27.73;20.50;;;20.50;99.90;;;;;;5043350;28;20468;-69
2021/09/15 00:04:23;;;;;;;21.73;20.03;;;20.40;99.90;;;;;;5042391;28;20457;-70
2021/09/15 00:06:51;;;;;;;26.10;21.90;;;20.40;99.90;;;;;;5043662;28;20484;-69
2021/09/15 00:09:19;;;;;;;25.07;20.43;;;20.40;99.90;;;;;;5050121;28;20475;-69
2021/09/15 00:11:46;;;;;;;23.73;21.70;;;20.30;99.90;;;;;;5055866;28;20451;-69
2021/09/15 00:14:14;;;;;;;24.43;21.83;;;20.20;99.90;;;;;;5047343;28;20463;-71
2021/09/15 00:16:41;;;;;;;28.30;21.50;;;20.20;99.90;;;;;;5050268;28;20459;-69
2021/09/15 00:19:09;;;;;;;24.00;21.77;;;20.10;99.90;;;;;;5038381;28;20459;-72
2021/09/15 00:21:38;;;;;;;24.77;22.20;;;20.10;99.90;;;;;;5058488;28;20476;-69
2021/09/15 00:24:05;;;;;;;28.63;21.47;;;20.10;99.90;;;;;;5057234;28;20470;-70
2021/09/15 00:26:34;;;;;;;24.53;22.03;;;20.10;99.90;;;;;;5042597;28;20479;-70
2021/09/15 00:29:01;;;;;;;28.03;20.80;;;20.10;99.90;;;;;;5040457;28;20452;-71
2021/09/15 00:31:28;;;;;;;27.00;22.93;;;20.20;99.90;;;;;;5044824;28;20460;-69
2021/09/15 00:33:55;;;;;;;27.20;22.17;;;20.20;99.90;;;;;;5043619;28;20483;-68
2021/09/15 00:36:23;;;;;;;36.10;22.70;;;20.20;99.90;;;;;;5042939;28;20464;-69
2021/09/15 00:38:50;;;;;;;28.20;22.40;;;20.20;99.90;;;;;;5048960;28;20459;-69
2021/09/15 00:41:18;;;;;;;34.73;21.87;;;20.20;99.90;;;;;;5043894;28;20460;-72
2021/09/15 00:44:02;;;;;;;36.63;22.53;;;20.20;99.90;;;;;;5040265;28;20463;-71
2021/09/15 00:46:30;;;;;;;31.23;23.30;;;20.10;99.90;;;;;;5048578;28;20503;-70
2021/09/15 00:48:57;;;;;;;31.97;23.13;;;20.20;99.90;;;;;;5042907;28;20465;-69
2021/09/15 00:51:25;;;;;;;29.33;25.27;;;20.20;99.90;;;;;;5044098;28;20707;-69
2021/09/15 00:53:52;;;;;;;31.47;25.47;;;20.20;99.90;;;;;;5044274;28;20459;-69
2021/09/15 00:56:19;;;;;;;34.03;26.67;;;20.20;99.90;;;;;;5041821;28;20465;-68
2021/09/15 00:58:46;;;;;;;31.43;27.77;;;20.20;99.90;;;;;;5051470;28;20494;-68
2021/09/15 01:01:14;;;;;;;42.07;28.33;;;20.10;99.90;;;;;;5038223;28;20460;-68
2021/09/15 01:03:44;;;;;;;38.87;29.80;;;20.10;99.90;;;;;;5035704;28;20464;-68
2021/09/15 01:06:12;;;;;;;33.97;29.40;;;20.00;99.90;;;;;;5036794;28;20487;-68
2021/09/15 01:08:41;;;;;;;41.37;31.07;;;19.90;99.90;;;;;;5051083;28;20835;-70
2021/09/15 01:11:09;;;;;;;40.53;31.07;;;19.90;99.90;;;;;;5051787;28;20461;-69
2021/09/15 01:13:37;;;;;;;37.33;32.97;;;19.90;99.90;;;;;;5043278;28;20455;-68
2021/09/15 01:16:06;;;;;;;36.47;32.90;;;19.80;99.90;;;;;;5043478;28;20815;-68
2021/09/15 01:18:34;;;;;;;40.60;33.07;;;19.80;99.90;;;;;;5045690;28;20807;-67
2021/09/15 01:21:03;;;;;;;47.57;34.63;;;19.80;99.90;;;;;;5051176;28;20554;-69
2021/09/15 01:23:30;;;;;;;40.03;33.53;;;19.80;99.90;;;;;;5059276;28;20474;-67
2021/09/15 01:25:58;;;;;;;43.00;34.87;;;19.70;99.90;;;;;;5044475;28;20542;-68
2021/09/15 01:28:26;;;;;;;38.47;34.27;;;19.60;99.90;;;;;;5039459;28;20468;-70
2021/09/15 01:30:53;;;;;;;43.73;34.10;;;19.60;99.90;;;;;;5047228;28;20452;-67
2021/09/15 01:33:20;;;;;;;55.43;33.70;;;19.50;99.90;;;;;;5046512;28;20476;-69
2021/09/15 01:35:47;;;;;;;41.30;34.17;;;19.40;99.90;;;;;;5042495;28;20484;-71
2021/09/15 01:38:17;;;;;;;39.40;35.20;;;19.40;99.90;;;;;;5039632;28;20476;-70
2021/09/15 01:40:44;;;;;;;42.67;36.23;;;19.30;99.90;;;;;;5046871;28;20465;-69
2021/09/15 01:43:11;;;;;;;44.53;37.03;;;19.30;99.90;;;;;;5042988;28;20483;-68
2021/09/15 01:45:39;;;;;;;40.50;35.70;;;19.20;99.90;;;;;;5051135;28;20822;-68
2021/09/15 01:48:06;;;;;;;49.70;36.60;;;19.20;99.90;;;;;;5059799;28;20446;-68
2021/09/15 01:50:33;;;;;;;40.93;36.83;;;19.20;99.90;;;;;;5045575;28;20459;-68
2021/09/15 01:53:00;;;;;;;46.43;37.27;;;19.20;99.90;;;;;;5041010;28;20459;-68
2021/09/15 01:55:31;;;;;;;47.90;37.33;;;19.10;99.90;;;;;;5048891;28;20772;-67
2021/09/15 01:57:58;;;;;;;39.33;35.10;;;19.10;99.90;;;;;;5042753;28;20453;-68
2021/09/15 02:00:25;;;;;;;41.33;36.50;;;19.10;99.90;;;;;;5046620;28;20465;-71
2021/09/15 02:02:52;;;;;;;42.80;37.23;;;19.10;99.90;;;;;;5043247;28;20455;-68
2021/09/15 02:05:20;;;;;;;41.47;37.00;;;19.00;99.90;;;;;;5042252;28;20468;-68
2021/09/15 02:07:48;;;;;;;47.67;37.50;;;19.00;99.90;;;;;;5044287;28;20491;-68
2021/09/15 02:10:14;;;;;;;41.40;36.93;;;19.00;99.90;;;;;;5037777;28;20460;-68
2021/09/15 02:12:43;;;;;;;48.43;38.87;;;19.00;99.90;;;;;;5046704;28;20824;-69
2021/09/15 02:15:13;;;;;;;40.53;36.30;;;19.10;99.90;;;;;;5051222;28;20463;-67
2021/09/15 02:17:42;;;;;;;40.73;36.53;;;19.00;99.90;;;;;;5046846;28;20471;-71
2021/09/15 02:20:11;;;;;;;40.17;36.10;;;19.00;99.90;;;;;;5044548;28;20813;-68
2021/09/15 02:22:39;;;;;;;40.23;36.00;;;19.00;99.90;;;;;;5047001;28;20458;-68
2021/09/15 02:25:08;;;;;;;41.97;36.03;;;19.00;99.90;;;;;;5048981;28;20470;-68
2021/09/15 02:27:35;;;;;;;47.10;37.87;;;19.00;99.90;;;;;;5048904;28;20492;-68
2021/09/15 02:30:05;;;;;;;54.20;36.77;;;18.90;99.90;;;;;;5049456;28;20566;-67
2021/09/15 02:32:33;;;;;;;40.47;35.97;;;18.90;99.90;;;;;;5044988;28;20587;-67
2021/09/15 02:35:00;;;;;;;41.87;37.10;;;18.90;99.90;;;;;;5053008;28;20470;-70
2021/09/15 02:37:29;;;;;;;49.20;38.53;;;18.90;99.90;;;;;;5048510;28;20463;-70
2021/09/15 02:39:55;;;;;;;52.43;38.70;;;18.80;99.90;;;;;;5049168;28;20455;-68
2021/09/15 02:42:23;;;;;;;48.47;38.80;;;18.80;99.90;;;;;;5050417;28;20464;-70
2021/09/15 02:44:49;;;;;;;62.33;38.50;;;18.80;99.90;;;;;;5056082;28;20460;-68
2021/09/15 02:47:18;;;;;;;56.70;38.00;;;18.80;99.90;;;;;;5049257;28;20488;-71
2021/09/15 02:49:45;;;;;;;43.63;37.43;;;18.80;99.90;;;;;;5049652;28;20451;-70
2021/09/15 02:52:12;;;;;;;69.20;39.40;;;18.80;99.90;;;;;;5044486;28;20448;-69
2021/09/15 02:54:40;;;;;;;57.47;36.33;;;18.80;99.90;;;;;;5044845;28;20563;-67
2021/09/15 02:57:07;;;;;;;42.67;36.60;;;18.80;99.90;;;;;;5044382;28;20459;-68
2021/09/15 02:59:34;;;;;;;53.87;36.27;;;18.80;99.90;;;;;;5049420;28;20940;-67
2021/09/15 03:02:00;;;;;;;45.00;38.13;;;18.80;99.90;;;;;;5041192;28;20462;-68
2021/09/15 03:04:29;;;;;;;48.03;37.00;;;18.80;99.90;;;;;;5047295;28;20455;-70
2021/09/15 03:06:58;;;;;;;50.67;36.90;;;18.80;99.90;;;;;;5047953;28;20507;-68
2021/09/15 03:09:25;;;;;;;53.13;37.03;;;18.80;99.90;;;;;;5045803;28;20480;-71
2021/09/15 03:11:52;;;;;;;50.33;37.30;;;18.80;99.90;;;;;;5046722;28;20463;-68
2021/09/15 03:14:20;;;;;;;47.83;35.97;;;18.80;99.90;;;;;;5043418;28;20468;-70
2021/09/15 03:16:49;;;;;;;42.57;38.07;;;18.80;99.90;;;;;;5046565;28;20471;-70
2021/09/15 03:19:16;;;;;;;53.30;37.20;;;18.80;99.90;;;;;;5036061;28;20463;-68
2021/09/15 03:21:46;;;;;;;40.73;36.17;;;18.80;99.90;;;;;;5048739;28;20483;-70
2021/09/15 03:24:13;;;;;;;50.23;36.30;;;18.80;99.90;;;;;;5042184;28;20456;-70
2021/09/15 03:26:41;;;;;;;39.30;34.93;;;18.80;99.90;;;;;;5044712;28;20511;-68
2021/09/15 03:29:09;;;;;;;48.70;36.07;;;18.80;99.90;;;;;;5042128;28;20460;-68
2021/09/15 03:31:36;;;;;;;41.90;35.53;;;18.80;99.90;;;;;;5046671;28;20468;-71
2021/09/15 03:34:03;;;;;;;42.90;38.20;;;18.90;99.90;;;;;;5049290;28;20987;-68
2021/09/15 03:36:30;;;;;;;41.83;36.30;;;18.90;99.90;;;;;;5047691;28;20471;-71
2021/09/15 03:38:58;;;;;;;44.30;37.30;;;18.90;99.90;;;;;;5038880;28;20471;-67
2021/09/15 03:41:26;;;;;;;47.93;36.20;;;18.90;99.90;;;;;;5038025;28;20463;-68
2021/09/15 03:43:53;;;;;;;43.73;36.43;;;19.00;99.90;;;;;;5047255;28;20455;-71
2021/09/15 03:46:20;;;;;;;45.70;35.60;;;19.00;99.90;;;;;;5046781;28;20483;-70
2021/09/15 03:48:47;;;;;;;39.80;35.60;;;19.00;99.90;;;;;;5047665;28;20460;-70
2021/09/15 03:51:14;;;;;;;40.27;36.17;;;19.00;99.90;;;;;;5047239;28;20459;-71
2021/09/15 03:53:42;;;;;;;40.80;36.50;;;19.00;99.90;;;;;;5048072;28;20927;-70
2021/09/15 03:56:11;;;;;;;42.30;37.87;;;18.90;99.90;;;;;;5051027;28;20464;-68
2021/09/15 03:58:38;;;;;;;45.33;38.40;;;18.90;99.90;;;;;;5053387;28;22503;-68
2021/09/15 04:01:06;;;;;;;43.90;38.27;;;19.00;99.90;;;;;;5046728;28;20462;-68
2021/09/15 04:03:35;;;;;;;47.03;38.87;;;19.00;99.90;;;;;;5041613;28;20447;-69
2021/09/15 04:06:03;;;;;;;48.67;38.73;;;19.00;99.90;;;;;;5042285;28;20927;-68
2021/09/15 04:08:30;;;;;;;55.50;40.83;;;19.00;99.90;;;;;;5046162;28;20485;-68
2021/09/15 04:10:57;;;;;;;52.03;41.60;;;19.00;99.90;;;;;;5048598;28;20464;-68
2021/09/15 04:13:26;;;;;;;45.77;40.70;;;19.00;99.90;;;;;;5044348;28;20831;-68
2021/09/15 04:15:53;;;;;;;50.20;41.07;;;19.00;99.90;;;;;;5042378;28;20492;-67
2021/09/15 04:18:20;;;;;;;48.07;41.70;;;19.00;99.90;;;;;;5043361;28;20452;-68
2021/09/15 04:20:47;;;;;;;43.00;38.60;;;19.00;99.90;;;;;;5049116;28;20464;-68
2021/09/15 04:23:18;;;;;;;43.90;37.40;;;18.90;99.90;;;;;;5045388;28;21244;-67
2021/09/15 04:31:22;;;;;;;58.67;41.03;;;19.00;99.90;;;;;;5039315;28;20800;-67
2021/09/15 04:33:51;;;;;;;41.87;37.77;;;19.00;99.90;;;;;;5041922;28;20494;-70
2021/09/15 04:36:18;;;;;;;46.57;40.17;;;19.00;99.90;;;;;;5043630;28;20460;-70
2021/09/15 04:38:45;;;;;;;48.87;41.17;;;19.10;99.90;;;;;;5042364;28;20484;-70
2021/09/15 04:41:12;;;;;;;42.00;37.80;;;19.20;99.90;;;;;;5046091;28;20462;-68
2021/09/15 04:43:41;;;;;;;45.30;38.67;;;19.20;99.90;;;;;;5037364;28;20931;-70
2021/09/15 04:46:08;;;;;;;49.37;36.47;;;19.10;99.90;;;;;;5040740;28;20897;-68
2021/09/15 04:48:37;;;;;;;44.53;39.63;;;19.10;99.90;;;;;;5041346;28;20489;-71
2021/09/15 04:51:05;;;;;;;49.70;40.50;;;19.10;99.90;;;;;;5043080;28;20556;-70
2021/09/15 04:53:33;;;;;;;44.13;39.33;;;19.00;99.90;;;;;;5052056;28;20455;-69
2021/09/15 04:56:02;;;;;;;45.90;40.90;;;19.00;99.90;;;;;;5047410;28;20459;-68
2021/09/15 04:58:29;;;;;;;47.33;42.23;;;19.00;99.90;;;;;;5052708;28;20454;-70
2021/09/15 05:00:59;;;;;;;44.03;39.63;;;19.00;99.90;;;;;;5036953;28;20460;-69
2021/09/15 05:03:27;;;;;;;43.23;38.83;;;19.00;99.90;;;;;;5040068;28;20495;-68
2021/09/15 05:05:54;;;;;;;55.37;39.60;;;19.00;99.90;;;;;;5034966;28;20466;-68
2021/09/15 05:08:21;;;;;;;44.97;39.70;;;19.00;99.90;;;;;;5041557;28;20502;-71
2021/09/15 05:10:49;;;;;;;47.63;39.53;;;19.00;99.90;;;;;;5042204;28;20726;-68
2021/09/15 05:13:16;;;;;;;43.50;39.27;;;19.00;99.90;;;;;;5040560;28;20458;-68
2021/09/15 05:15:43;;;;;;;46.43;41.30;;;19.00;99.90;;;;;;5043053;28;20467;-71
2021/09/15 05:18:11;;;;;;;44.10;39.30;;;19.00;99.90;;;;;;5046172;28;20594;-69
2021/09/15 05:20:38;;;;;;;45.40;40.50;;;18.90;99.90;;;;;;5036157;28;20560;-70
2021/09/15 05:23:05;;;;;;;43.93;39.43;;;18.90;99.90;;;;;;5042380;28;20471;-72
2021/09/15 05:25:32;;;;;;;45.27;40.40;;;18.90;99.90;;;;;;5043187;28;20468;-70
2021/09/15 05:28:00;;;;;;;46.93;40.80;;;19.00;99.90;;;;;;5040035;28;21220;-69
2021/09/15 05:30:27;;;;;;;44.90;39.93;;;19.00;99.90;;;;;;5043650;28;20876;-69
2021/09/15 05:32:54;;;;;;;45.03;40.93;;;19.00;99.90;;;;;;5034189;28;20455;-69
2021/09/15 05:35:22;;;;;;;44.87;40.33;;;19.10;99.90;;;;;;5046204;28;20487;-70
2021/09/15 05:37:49;;;;;;;45.20;40.77;;;19.10;99.90;;;;;;5039285;28;20475;-70
2021/09/15 05:40:16;;;;;;;44.27;40.07;;;19.10;99.90;;;;;;5045484;28;20456;-72
2021/09/15 05:42:43;;;;;;;46.33;41.13;;;19.10;99.90;;;;;;5040870;28;20549;-69
2021/09/15 05:45:11;;;;;;;46.00;40.80;;;19.00;99.90;;;;;;5045909;28;20457;-71
2021/09/15 05:47:38;;;;;;;46.10;40.80;;;19.10;99.90;;;;;;5037115;28;20484;-69
2021/09/15 05:50:06;;;;;;;50.53;41.67;;;19.10;99.90;;;;;;5046851;28;20459;-69
2021/09/15 05:52:35;;;;;;;51.13;38.87;;;19.10;99.90;;;;;;5048293;28;20459;-69
2021/09/15 05:55:02;;;;;;;43.63;39.23;;;19.10;99.90;;;;;;5053471;28;20581;-70
2021/09/15 05:57:29;;;;;;;52.73;42.53;;;19.10;99.90;;;;;;5046550;28;22507;-72
2021/09/15 05:59:56;;;;;;;45.97;41.17;;;19.10;99.90;;;;;;5047408;28;20451;-71
2021/09/15 06:02:23;;;;;;;50.93;41.00;;;19.10;99.90;;;;;;5040642;28;20459;-70
2021/09/15 06:04:50;;;;;;;43.40;38.70;;;19.10;99.90;;;;;;5046058;28;20468;-69
2021/09/15 06:07:17;;;;;;;44.13;39.70;;;19.10;99.90;;;;;;5045228;28;20471;-70
2021/09/15 06:09:46;;;;;;;44.57;39.60;;;19.20;99.90;;;;;;5045746;28;20455;-70
2021/09/15 06:12:13;;;;;;;50.73;40.17;;;19.20;99.90;;;;;;5044767;28;20943;-72
2021/09/15 06:14:40;;;;;;;45.83;39.77;;;19.20;99.90;;;;;;5047546;28;20490;-71
2021/09/15 06:17:07;;;;;;;42.50;38.07;;;19.30;99.90;;;;;;5046146;28;20460;-69
2021/09/15 06:19:35;;;;;;;43.13;38.77;;;19.30;99.90;;;;;;5045418;28;20460;-71
2021/09/15 06:22:03;;;;;;;41.93;37.20;;;19.30;99.90;;;;;;5044513;28;20464;-72
2021/09/15 06:24:30;;;;;;;43.33;38.57;;;19.30;99.90;;;;;;5046065;28;20475;-69
2021/09/15 06:26:59;;;;;;;43.77;38.27;;;19.40;99.90;;;;;;5044400;28;20455;-69
2021/09/15 06:29:25;;;;;;;41.43;37.03;;;19.40;99.90;;;;;;5044372;28;20460;-68
2021/09/15 06:31:52;;;;;;;51.37;38.00;;;19.30;99.90;;;;;;5045696;28;20471;-69
2021/09/15 06:34:20;;;;;;;43.07;38.67;;;19.30;99.90;;;;;;5045606;28;20491;-70
2021/09/15 06:36:47;;;;;;;42.07;38.10;;;19.30;99.90;;;;;;5045125;28;20582;-69
2021/09/15 06:39:15;;;;;;;49.00;36.37;;;19.30;99.90;;;;;;5045848;28;20965;-71
2021/09/15 06:41:42;;;;;;;41.10;36.87;;;19.30;99.90;;;;;;5047372;28;20466;-70
2021/09/15 06:44:10;;;;;;;46.60;36.57;;;19.30;99.90;;;;;;5045323;28;20467;-69
2021/09/15 06:46:37;;;;;;;47.23;36.07;;;19.40;99.90;;;;;;5045299;28;20456;-70
2021/09/15 06:49:04;;;;;;;43.17;38.47;;;19.40;99.90;;;;;;5044494;28;20483;-69
2021/09/15 06:51:32;;;;;;;46.60;36.27;;;19.50;99.90;;;;;;5046478;28;20706;-69
2021/09/15 06:53:58;;;;;;;43.30;36.70;;;19.50;99.90;;;;;;5046434;28;21022;-70
2021/09/15 06:56:25;;;;;;;44.50;38.93;;;19.50;99.90;;;;;;5043311;28;20467;-68
2021/09/15 06:58:52;;;;;;;43.30;35.90;;;19.50;99.90;;;;;;5042375;28;20490;-69
2021/09/15 07:01:24;;;;;;;38.33;34.57;;;19.50;99.90;;;;;;5048062;28;20472;-69
2021/09/15 07:03:51;;;;;;;38.10;34.30;;;19.50;99.90;;;;;;5053467;28;20456;-69
2021/09/15 07:06:18;;;;;;;38.80;34.63;;;19.60;99.90;;;;;;5036472;28;20452;-70
2021/09/15 07:08:45;;;;;;;38.73;34.93;;;19.60;99.90;;;;;;5040010;28;20484;-69
2021/09/15 07:11:12;;;;;;;34.90;31.40;;;19.70;99.90;;;;;;5040748;28;20456;-68
2021/09/15 07:13:39;;;;;;;33.23;30.03;;;19.80;99.90;;;;;;5052619;28;20443;-69
2021/09/15 07:16:06;;;;;;;34.67;28.10;;;19.90;99.90;;;;;;5041956;28;20945;-69
2021/09/15 07:18:35;;;;;;;30.33;27.50;;;20.00;99.90;;;;;;5040991;28;20681;-69
2021/09/15 07:21:03;;;;;;;28.30;26.03;;;20.20;99.90;;;;;;5044328;28;20467;-69
2021/09/15 07:23:29;;;;;;;26.60;24.60;;;20.30;99.90;;;;;;5032689;28;20471;-69
2021/09/15 07:25:56;;;;;;;26.60;24.50;;;20.40;99.90;;;;;;5036737;28;20466;-69
2021/09/15 07:28:23;;;;;;;28.33;25.43;;;20.50;99.90;;;;;;5043364;28;20484;-70
2021/09/15 07:30:50;;;;;;;24.80;22.70;;;20.50;99.90;;;;;;5045593;28;20456;-69
2021/09/15 07:33:17;;;;;;;25.73;23.40;;;20.70;99.90;;;;;;5037230;28;20464;-70
2021/09/15 07:35:45;;;;;;;25.53;23.53;;;20.80;99.90;;;;;;5038203;28;20468;-69
2021/09/15 07:38:12;;;;;;;24.17;22.03;;;20.90;99.90;;;;;;5039833;28;20468;-71
2021/09/15 07:40:40;;;;;;;24.23;21.97;;;20.90;99.90;;;;;;5033080;28;20463;-69
2021/09/15 07:43:06;;;;;;;22.00;20.20;;;20.90;99.90;;;;;;5038314;28;20946;-69
2021/09/15 07:45:33;;;;;;;22.93;20.73;;;20.90;99.90;;;;;;5038560;28;20459;-70
2021/09/15 07:48:01;;;;;;;23.23;21.53;;;21.00;99.90;;;;;;5039597;28;20483;-70
2021/09/15 07:50:29;;;;;;;21.57;20.00;;;20.90;99.90;;;;;;5037470;28;20454;-70
2021/09/15 07:52:58;;;;;;;21.00;19.53;;;20.90;99.90;;;;;;5043666;28;21006;-69
2021/09/15 07:55:25;;;;;;;21.50;19.50;;;21.00;99.90;;;;;;5045754;28;20463;-69
2021/09/15 07:57:53;;;;;;;20.73;19.00;;;21.00;99.90;;;;;;5039032;28;20471;-69
2021/09/15 08:00:21;;;;;;;20.20;18.90;;;21.00;99.90;;;;;;5043479;28;20464;-69
2021/09/15 08:02:48;;;;;;;19.90;18.33;;;20.90;99.90;;;;;;5043626;28;20460;-69
2021/09/15 08:05:15;;;;;;;20.10;18.33;;;20.90;99.90;;;;;;5045827;28;20457;-68
2021/09/15 08:07:42;;;;;;;19.57;18.37;;;21.00;99.90;;;;;;5050051;28;20828;-68
2021/09/15 08:10:12;;;;;;;18.80;17.40;;;21.00;99.90;;;;;;5044838;28;20456;-68
2021/09/15 08:12:39;;;;;;;19.17;17.97;;;21.00;99.90;;;;;;5045857;28;20537;-69
2021/09/15 08:15:06;;;;;;;18.43;17.30;;;20.90;99.90;;;;;;5047745;28;20460;-68
2021/09/15 08:17:36;;;;;;;19.50;17.90;;;20.90;99.90;;;;;;5051347;28;20778;-69
2021/09/15 08:20:04;;;;;;;19.67;18.27;;;20.80;99.90;;;;;;5050773;28;20482;-69
2021/09/15 08:22:32;;;;;;;19.60;18.10;;;20.80;99.90;;;;;;5047321;28;20506;-68
2021/09/15 08:25:00;;;;;;;19.17;17.70;;;20.80;99.90;;;;;;5042471;28;20945;-68
2021/09/15 08:27:29;;;;;;;18.33;17.10;;;20.80;99.90;;;;;;5044047;28;20486;-69
2021/09/15 08:29:56;;;;;;;19.93;18.27;;;20.90;99.90;;;;;;5045452;28;20940;-71
2021/09/15 08:32:23;;;;;;;19.23;17.40;;;21.00;99.90;;;;;;5041638;28;20464;-68
2021/09/15 08:34:52;;;;;;;18.67;17.37;;;21.00;99.90;;;;;;5042168;28;20476;-70
2021/09/15 08:37:20;;;;;;;19.20;17.80;;;21.00;99.90;;;;;;5046021;28;20455;-68
2021/09/15 08:39:47;;;;;;;19.80;18.10;;;20.90;99.90;;;;;;5042259;28;20457;-70
2021/09/15 08:42:15;;;;;;;19.73;18.20;;;20.90;99.90;;;;;;5049417;28;20451;-67
2021/09/15 08:44:44;;;;;;;18.70;17.30;;;20.90;99.90;;;;;;5041629;28;20460;-69
2021/09/15 08:47:11;;;;;;;18.80;17.10;;;20.80;99.90;;;;;;5044642;28;20513;-72
2021/09/15 08:49:39;;;;;;;19.90;17.87;;;20.90;99.90;;;;;;5044698;28;20500;-69
2021/09/15 08:52:06;;;;;;;19.03;17.50;;;21.00;99.90;;;;;;5042956;28;20542;-68
2021/09/15 08:54:33;;;;;;;19.17;17.90;;;21.00;99.90;;;;;;5053764;28;20461;-70
2021/09/15 08:56:59;;;;;;;19.57;18.13;;;21.00;99.90;;;;;;5038458;28;20467;-70
2021/09/15 08:59:27;;;;;;;19.83;18.50;;;21.10;99.90;;;;;;5051495;28;20454;-69
2021/09/15 09:02:07;;;;;;;22.67;20.60;;;21.00;99.90;;;;;;5046924;28;20467;-69
2021/09/15 09:04:50;;;;;;;25.97;22.63;;;20.90;99.90;;;;;;5046846;28;20457;-68
2021/09/15 09:07:18;;;;;;;25.40;23.40;;;20.90;99.90;;;;;;5039486;28;20459;-68
2021/09/15 09:09:47;;;;;;;25.57;23.07;;;20.80;99.90;;;;;;5042045;28;20484;-69
2021/09/15 09:12:15;;;;;;;24.47;22.37;;;20.50;99.90;;;;;;5042766;28;20470;-68
2021/09/15 09:14:43;;;;;;;28.03;25.47;;;20.60;99.90;;;;;;5040823;28;20597;-68
2021/09/15 09:17:27;;;;;;;26.53;24.43;;;20.60;99.90;;;;;;5045381;28;20468;-68
2021/09/15 09:20:12;;;;;;;25.73;23.73;;;20.60;99.90;;;;;;5035339;28;20472;-68
2021/09/15 09:22:59;;;;;;;27.10;24.80;;;20.70;99.90;;;;;;5041719;28;20780;-68
2021/09/15 09:25:27;;;;;;;24.70;22.37;;;20.80;99.90;;;;;;5042808;28;20455;-68
2021/09/15 09:27:56;;;;;;;25.33;22.90;;;21.00;99.90;;;;;;5056741;28;20467;-69
2021/09/15 09:30:35;;;;;;;24.00;22.17;;;21.10;99.90;;;;;;5042383;28;20652;-68
2021/09/15 09:33:05;;;;;;;24.30;22.53;;;21.50;99.90;;;;;;5047562;28;20509;-69
2021/09/15 09:35:41;;;;;;;22.67;20.80;;;21.70;99.90;;;;;;5048945;28;20482;-69
2021/09/15 09:38:22;;;;;;;23.90;22.00;;;21.90;99.90;;;;;;5048293;28;20538;-68
2021/09/15 09:41:12;;;;;;;22.93;21.33;;;22.20;99.90;;;;;;5039348;28;20981;-68
2021/09/15 09:43:41;;;;;;;22.70;21.07;;;22.40;99.90;;;;;;5045112;28;20774;-69
2021/09/15 09:46:10;;;;;;;29.97;26.40;;;22.40;99.90;;;;;;5044574;28;20452;-69
2021/09/15 09:48:41;;;;;;;29.03;26.20;;;22.20;99.90;;;;;;5046579;28;20506;-68
2021/09/15 09:51:29;;;;;;;30.50;28.00;;;22.00;99.90;;;;;;5046176;28;20460;-67
2021/09/15 09:54:15;;;;;;;33.33;30.33;;;21.80;99.90;;;;;;5045696;28;20532;-68
2021/09/15 09:56:43;;;;;;;34.27;30.83;;;21.80;99.90;;;;;;5048867;28;20463;-67
2021/09/15 09:59:11;;;;;;;35.93;32.83;;;21.70;99.90;;;;;;5043268;28;20510;-68
2021/09/15 10:01:41;;;;;;;38.20;34.40;;;21.70;99.90;;;;;;5040062;28;20460;-68
2021/09/15 10:04:12;;;;;;;36.93;33.57;;;21.70;99.90;;;;;;5041062;28;20468;-68
2021/09/15 10:06:41;;;;;;;38.30;34.33;;;21.60;99.90;;;;;;5039994;28;20952;-68
2021/09/15 10:09:08;;;;;;;38.03;34.03;;;21.70;99.90;;;;;;5050237;28;21420;-68
2021/09/15 10:11:36;;;;;;;36.00;32.70;;;21.50;99.90;;;;;;5048520;28;20551;-68
2021/09/15 10:14:06;;;;;;;33.77;30.40;;;21.50;99.90;;;;;;5061357;28;20459;-69
2021/09/15 10:16:39;;;;;;;34.17;31.07;;;21.50;99.90;;;;;;5055384;28;20454;-71
2021/09/15 10:19:11;;;;;;;32.33;29.10;;;21.60;99.90;;;;;;5042957;28;20760;-70
2021/09/15 10:21:38;;;;;;;33.23;30.20;;;21.70;99.90;;;;;;5047211;28;20459;-71
2021/09/15 10:24:06;;;;;;;32.93;29.93;;;21.70;99.90;;;;;;5038910;28;20456;-70
2021/09/15 10:26:35;;;;;;;33.70;30.53;;;21.70;99.90;;;;;;5044707;28;21002;-69
2021/09/15 10:29:31;;;;;;;33.37;30.33;;;21.80;99.90;;;;;;5043659;28;20497;-68
2021/09/15 10:32:09;;;;;;;34.50;31.17;;;21.80;99.90;;;;;;5049494;28;20456;-68
2021/09/15 10:34:53;;;;;;;34.90;31.70;;;21.80;99.90;;;;;;5039490;28;20699;-68
2021/09/15 10:37:51;;;;;;;35.40;32.10;;;22.00;99.90;;;;;;5034112;28;20457;-69
2021/09/15 10:40:35;;;;;;;34.37;31.37;;;21.90;99.90;;;;;;5039658;28;20451;-68
2021/09/15 10:43:04;;;;;;;31.23;28.43;;;21.80;99.90;;;;;;5038802;28;20460;-69
2021/09/15 10:45:32;;;;;;;32.23;29.63;;;22.00;99.90;;;;;;5040282;28;20795;-68
2021/09/15 10:48:01;;;;;;;29.27;26.77;;;22.00;99.90;;;;;;5038351;28;20549;-69
2021/09/15 10:50:52;;;;;;;29.43;26.70;;;22.00;99.90;;;;;;5045478;28;20511;-69
2021/09/15 10:53:22;;;;;;;27.97;25.70;;;22.10;99.90;;;;;;5044373;28;20464;-69
2021/09/15 10:55:51;;;;;;;25.67;23.37;;;22.20;99.90;;;;;;5041994;28;20555;-70
2021/09/15 10:58:21;;;;;;;25.10;23.03;;;22.40;99.90;;;;;;5040967;28;20454;-69
2021/09/15 11:00:51;;;;;;;25.10;23.07;;;22.50;99.90;;;;;;5045291;28;20452;-72
2021/09/15 11:03:27;;;;;;;25.33;23.33;;;22.50;99.90;;;;;;5038305;28;20456;-70
2021/09/15 11:05:56;;;;;;;25.47;23.47;;;22.60;99.90;;;;;;5049209;28;20564;-70
2021/09/15 11:08:33;;;;;;;24.63;22.90;;;22.80;99.90;;;;;;5040240;28;20472;-70
2021/09/15 11:11:01;;;;;;;24.00;22.20;;;22.80;99.90;;;;;;5034937;28;20512;-71
2021/09/15 11:13:57;;;;;;;25.63;23.43;;;22.90;99.90;;;;;;5042151;28;20821;-69
2021/09/15 11:16:27;;;;;;;26.50;24.27;;;22.90;99.90;;;;;;5044950;28;20471;-70
2021/09/15 11:18:55;;;;;;;25.37;23.43;;;23.10;99.90;;;;;;5032545;28;20465;-69
2021/09/15 11:21:25;;;;;;;25.87;23.93;;;23.20;99.90;;;;;;5039437;28;20464;-70
2021/09/15 11:23:56;;;;;;;26.60;24.17;;;23.30;99.90;;;;;;5040685;28;20530;-70
2021/09/15 11:26:51;;;;;;;24.80;22.90;;;23.50;99.90;;;;;;5041988;28;20826;-72
2021/09/15 11:29:42;;;;;;;23.50;22.00;;;23.60;99.90;;;;;;4996777;28;20483;-70
2021/09/15 11:32:11;;;;;;;24.40;22.60;;;23.70;99.90;;;;;;5040041;28;20451;-69
2021/09/15 11:34:42;;;;;;;24.83;22.93;;;23.90;99.90;;;;;;5042835;28;20534;-71
2021/09/15 11:37:22;;;;;;;25.37;23.47;;;23.90;99.90;;;;;;5049822;28;20455;-69
2021/09/15 11:39:56;;;;;;;26.00;24.07;;;24.00;99.90;;;;;;5047032;28;20460;-72
2021/09/15 11:42:24;;;;;;;24.70;23.03;;;24.20;99.90;;;;;;5041410;28;20469;-69
2021/09/15 11:44:51;;;;;;;24.90;23.03;;;24.30;99.90;;;;;;5040763;28;20963;-69
2021/09/15 11:47:24;;;;;;;24.60;22.80;;;24.50;99.90;;;;;;5040894;28;20460;-69
2021/09/15 11:49:51;;;;;;;25.67;23.87;;;24.80;99.90;;;;;;5041581;28;20528;-69
2021/09/15 11:52:20;;;;;;;24.90;23.10;;;24.90;99.90;;;;;;5038730;28;20484;-69
2021/09/15 11:54:52;;;;;;;25.80;23.90;;;25.00;99.90;;;;;;5039122;28;20464;-69
2021/09/15 11:57:20;;;;;;;27.33;25.10;;;24.90;99.90;;;;;;5032935;28;20460;-69
2021/09/15 11:59:48;;;;;;;25.70;23.80;;;25.00;99.90;;;;;;5039352;28;20850;-69
2021/09/15 12:02:17;;;;;;;27.10;25.10;;;25.10;99.90;;;;;;5035753;28;20463;-69
2021/09/15 12:04:46;;;;;;;27.67;25.60;;;25.10;99.90;;;;;;5045486;28;20846;-71
2021/09/15 12:07:17;;;;;;;27.83;25.53;;;25.10;99.90;;;;;;5039151;28;20452;-72
2021/09/15 12:09:45;;;;;;;28.57;26.33;;;24.90;99.90;;;;;;5038050;28;21039;-69
2021/09/15 12:12:13;;;;;;;28.43;26.23;;;24.80;99.90;;;;;;5037800;28;20465;-69
2021/09/15 12:14:45;;;;;;;29.90;27.27;;;24.70;99.90;;;;;;5041422;28;20501;-70
2021/09/15 12:17:14;;;;;;;28.40;26.20;;;24.80;99.90;;;;;;5040615;28;20479;-69
2021/09/15 12:19:47;;;;;;;29.10;27.00;;;24.90;99.90;;;;;;5044218;28;20460;-69
2021/09/15 12:22:19;;;;;;;29.97;27.57;;;25.10;99.90;;;;;;5035382;28;20571;-72
2021/09/15 12:24:59;;;;;;;28.60;26.40;;;25.10;99.90;;;;;;5041762;28;20547;-70
2021/09/15 12:27:30;;;;;;;28.33;26.17;;;25.30;99.90;;;;;;5044641;28;20474;-71
2021/09/15 12:30:01;;;;;;;29.37;27.10;;;25.40;99.90;;;;;;5039187;28;20487;-73
2021/09/15 12:32:31;;;;;;;30.27;27.50;;;25.60;99.90;;;;;;5039088;28;20463;-71
2021/09/15 12:34:58;;;;;;;29.53;27.13;;;25.80;99.90;;;;;;5030309;28;20843;-71
2021/09/15 12:37:26;;;;;;;31.27;28.80;;;25.60;99.90;;;;;;5038563;28;20461;-70
2021/09/15 12:39:55;;;;;;;29.00;26.70;;;25.40;99.90;;;;;;5037920;28;20471;-70
2021/09/15 12:42:25;;;;;;;29.90;27.63;;;25.80;99.90;;;;;;5043369;28;20493;-72
2021/09/15 12:45:00;;;;;;;28.77;26.57;;;26.30;99.90;;;;;;5037977;28;20460;-70